createdAt,value
2019-05-25T00:00:52.957Z,9.10
2019-05-25T00:03:24.311Z,8.37
2019-05-25T00:05:55.617Z,8.00
2019-05-25T00:08:26.948Z,9.07
2019-05-25T00:10:58.344Z,8.70
2019-05-25T00:13:29.671Z,8.87
2019-05-25T00:16:01.009Z,8.97
2019-05-25T00:18:32.334Z,9.27
2019-05-25T00:21:03.815Z,8.20
2019-05-25T00:23:35.150Z,9.07
2019-05-25T00:26:06.558Z,9.63
2019-05-25T00:28:38.980Z,8.90
2019-05-25T00:31:12.057Z,9.20
2019-05-25T00:33:43.458Z,9.07
2019-05-25T00:36:17.879Z,8.33
2019-05-25T00:38:49.214Z,9.63
2019-05-25T00:41:20.579Z,8.93
2019-05-25T00:43:51.923Z,10.07
2019-05-25T00:46:23.248Z,9.60
2019-05-25T00:48:54.597Z,9.53
2019-05-25T00:51:25.955Z,9.87
2019-05-25T00:53:57.272Z,9.43
2019-05-25T00:56:28.676Z,9.20
2019-05-25T00:58:59.968Z,9.77
2019-05-25T01:01:31.313Z,9.63
2019-05-25T01:04:02.688Z,9.50
2019-05-25T01:06:34.253Z,9.17
2019-05-25T01:09:07.191Z,9.30
2019-05-25T01:11:38.629Z,9.20
2019-05-25T01:14:09.990Z,10.07
2019-05-25T01:16:41.428Z,10.67
2019-05-25T01:19:12.683Z,10.77
2019-05-25T01:21:45.140Z,10.00
2019-05-25T01:24:16.521Z,9.37
2019-05-25T01:26:47.852Z,9.50
2019-05-25T01:29:19.135Z,9.80
2019-05-25T01:31:50.571Z,9.10
2019-05-25T01:34:21.934Z,10.43
2019-05-25T01:36:53.320Z,8.97
2019-05-25T01:39:24.671Z,9.50
2019-05-25T01:41:56.014Z,9.47
2019-05-25T01:44:27.445Z,8.43
2019-05-25T01:46:58.789Z,9.43
2019-05-25T01:49:30.142Z,8.83
2019-05-25T01:52:01.499Z,9.87
2019-05-25T01:54:32.923Z,9.67
2019-05-25T01:57:04.341Z,9.60
2019-05-25T01:59:35.732Z,8.87
2019-05-25T02:02:07.113Z,8.83
2019-05-25T02:04:38.427Z,8.60
2019-05-25T02:07:09.785Z,9.53
2019-05-25T02:09:41.084Z,9.00
2019-05-25T02:12:12.462Z,8.53
2019-05-25T02:14:43.779Z,8.77
2019-05-25T02:17:16.094Z,9.70
2019-05-25T02:19:47.444Z,10.07
2019-05-25T02:22:18.815Z,9.93
2019-05-25T02:24:50.143Z,9.90
2019-05-25T02:27:21.500Z,8.83
2019-05-25T02:29:52.881Z,9.13
2019-05-25T02:32:24.232Z,8.97
2019-05-25T02:34:55.582Z,10.03
2019-05-25T02:37:26.890Z,9.63
2019-05-25T02:39:58.203Z,10.30
2019-05-25T02:42:29.559Z,10.10
2019-05-25T02:45:02.523Z,9.63
2019-05-25T02:47:33.876Z,9.03
2019-05-25T02:50:08.539Z,9.57
2019-05-25T02:52:39.902Z,9.60
2019-05-25T02:55:13.281Z,9.17
2019-05-25T02:57:44.591Z,8.93
2019-05-25T03:00:16.249Z,9.57
2019-05-25T03:02:48.053Z,8.90
2019-05-25T03:05:19.571Z,10.00
2019-05-25T03:07:51.884Z,9.63
2019-05-25T03:10:23.241Z,8.60
2019-05-25T03:12:56.288Z,9.70
2019-05-25T03:15:27.642Z,9.97
2019-05-25T03:17:58.987Z,9.67
2019-05-25T03:20:30.764Z,9.43
2019-05-25T03:23:02.746Z,10.30
2019-05-25T03:25:48.539Z,9.87
2019-05-25T03:28:07.072Z,10.03
2019-05-25T03:30:39.059Z,9.20
2019-05-25T03:33:10.359Z,10.13
2019-05-25T03:35:41.792Z,9.90
2019-05-25T03:38:14.113Z,9.87
2019-05-25T03:40:45.458Z,9.90
2019-05-25T03:43:16.811Z,10.33
2019-05-25T03:45:48.129Z,9.87
2019-05-25T03:48:19.494Z,9.77
2019-05-25T03:50:50.802Z,9.33
2019-05-25T03:53:22.178Z,9.73
2019-05-25T03:56:05.166Z,9.37
2019-05-25T03:58:27.540Z,9.97
2019-05-25T04:00:58.852Z,9.00
2019-05-25T04:03:30.219Z,9.23
2019-05-25T04:06:01.611Z,10.37
2019-05-25T04:08:32.957Z,9.27
2019-05-25T04:11:04.269Z,9.80
2019-05-25T04:13:35.624Z,10.50
2019-05-25T04:16:07.107Z,9.93
2019-05-25T04:18:38.472Z,9.50
2019-05-25T04:21:09.825Z,10.87
2019-05-25T04:23:41.224Z,10.07
2019-05-25T04:26:22.125Z,10.63
2019-05-25T04:28:45.718Z,10.43
2019-05-25T04:31:17.038Z,10.03
2019-05-25T04:33:48.412Z,10.37
2019-05-25T04:36:19.834Z,10.00
2019-05-25T04:38:51.203Z,9.37
2019-05-25T04:41:22.572Z,9.60
2019-05-25T04:43:53.930Z,10.13
2019-05-25T04:46:25.274Z,9.90
2019-05-25T04:48:56.686Z,9.70
2019-05-25T04:51:28.031Z,9.53
2019-05-25T04:53:59.391Z,10.13
2019-05-25T04:56:39.710Z,10.40
2019-05-25T04:59:03.813Z,11.87
2019-05-25T05:01:35.154Z,12.37
2019-05-25T05:04:06.558Z,12.10
2019-05-25T05:06:37.902Z,10.33
2019-05-25T05:09:09.434Z,9.90
2019-05-25T05:11:40.780Z,10.90
2019-05-25T05:14:12.149Z,11.37
2019-05-25T05:16:43.458Z,10.60
2019-05-25T05:19:14.818Z,11.10
2019-05-25T05:21:46.195Z,11.53
2019-05-25T05:24:19.294Z,11.70
2019-05-25T05:26:55.664Z,11.70
2019-05-25T05:29:23.777Z,10.87
2019-05-25T05:31:55.176Z,11.00
2019-05-25T05:34:26.577Z,11.70
2019-05-25T05:36:58.850Z,11.83
2019-05-25T05:39:31.097Z,11.87
2019-05-25T05:42:04.452Z,10.93
2019-05-25T05:44:39.165Z,11.27
2019-05-25T05:47:14.103Z,11.07
2019-05-25T05:49:52.596Z,10.93
2019-05-25T05:52:22.573Z,9.70
2019-05-25T05:54:56.832Z,10.80
2019-05-25T05:57:28.215Z,9.83
2019-05-25T05:59:59.545Z,10.57
2019-05-25T06:02:30.885Z,10.67
2019-05-25T06:05:03.072Z,11.00
2019-05-25T06:07:34.593Z,10.73
2019-05-25T06:10:07.922Z,11.53
2019-05-25T06:12:39.373Z,11.20
2019-05-25T06:15:10.964Z,9.30
2019-05-25T06:17:42.353Z,9.93
2019-05-25T06:20:14.588Z,11.30
2019-05-25T06:22:45.933Z,10.43
2019-05-25T06:25:18.398Z,10.93
2019-05-25T06:27:49.784Z,10.93
2019-05-25T06:30:23.472Z,9.67
2019-05-25T06:32:54.797Z,11.13
2019-05-25T06:35:26.109Z,10.60
2019-05-25T06:37:57.493Z,10.43
2019-05-25T06:40:28.829Z,10.17
2019-05-25T06:43:00.198Z,10.30
2019-05-25T06:45:31.500Z,9.57
2019-05-25T06:48:02.873Z,9.93
2019-05-25T06:50:34.234Z,9.50
2019-05-25T06:53:05.607Z,8.60
2019-05-25T06:55:36.964Z,9.67
2019-05-25T06:58:08.335Z,9.37
2019-05-25T07:00:39.643Z,8.90
2019-05-25T07:03:11.001Z,8.23
2019-05-25T07:05:42.330Z,8.23
2019-05-25T07:08:13.727Z,8.97
2019-05-25T07:10:45.008Z,8.80
2019-05-25T07:13:16.360Z,8.20
2019-05-25T07:15:47.703Z,7.87
2019-05-25T07:18:19.082Z,7.00
2019-05-25T07:20:53.493Z,7.00
2019-05-25T07:23:24.901Z,6.07
2019-05-25T07:25:56.221Z,6.87
2019-05-25T07:28:27.607Z,6.47
2019-05-25T07:30:58.915Z,5.30
2019-05-25T07:33:30.282Z,5.00
2019-05-25T07:36:01.586Z,5.80
2019-05-25T07:38:32.940Z,5.57
2019-05-25T07:41:04.262Z,4.63
2019-05-25T07:43:35.636Z,5.17
2019-05-25T07:46:06.987Z,5.40
2019-05-25T07:48:38.368Z,5.50
2019-05-25T07:51:09.703Z,6.07
2019-05-25T07:53:41.018Z,5.23
2019-05-25T07:56:12.584Z,5.40
2019-05-25T07:58:43.947Z,5.90
2019-05-25T08:01:15.367Z,6.03
2019-05-25T08:03:46.728Z,6.15
2019-05-25T08:06:18.092Z,5.70
2019-05-25T08:08:49.660Z,6.03
2019-05-25T08:11:20.994Z,5.70
2019-05-25T08:13:52.345Z,5.80
2019-05-25T08:16:25.954Z,6.70
2019-05-25T08:18:57.305Z,5.92
2019-05-25T08:21:28.640Z,6.20
2019-05-25T08:24:00.012Z,5.78
2019-05-25T08:26:31.437Z,6.05
2019-05-25T08:29:02.797Z,5.65
2019-05-25T08:31:34.135Z,5.55
2019-05-25T08:34:05.497Z,6.20
2019-05-25T08:36:39.824Z,5.00
2019-05-25T08:39:11.189Z,5.78
2019-05-25T08:41:45.468Z,5.58
2019-05-25T08:44:15.676Z,5.90
2019-05-25T08:46:47.006Z,5.70
2019-05-25T08:49:18.379Z,5.17
2019-05-25T08:51:49.722Z,5.05
2019-05-25T08:54:21.079Z,5.72
2019-05-25T08:56:52.412Z,6.25
2019-05-25T08:59:23.786Z,6.00
2019-05-25T09:01:55.144Z,5.97
2019-05-25T09:04:26.542Z,6.37
2019-05-25T09:06:58.980Z,6.42
2019-05-25T09:09:30.423Z,5.25
2019-05-25T09:12:02.443Z,6.70
2019-05-25T09:14:33.881Z,7.45
2019-05-25T09:17:06.218Z,5.83
2019-05-25T09:19:37.593Z,6.30
2019-05-25T09:22:08.932Z,6.25
2019-05-25T09:24:40.349Z,6.75
2019-05-25T09:27:11.696Z,6.95
2019-05-25T09:29:43.050Z,6.85
2019-05-25T09:32:15.357Z,7.00
2019-05-25T09:34:46.764Z,5.33
2019-05-25T09:37:18.099Z,6.70
2019-05-25T09:39:49.479Z,6.92
2019-05-25T09:42:21.994Z,6.92
2019-05-25T09:44:53.342Z,6.75
2019-05-25T09:47:24.671Z,6.50
2019-05-25T09:49:56.030Z,6.00
2019-05-25T09:52:27.409Z,5.95
2019-05-25T09:54:58.709Z,6.60
2019-05-25T09:57:30.108Z,6.70
2019-05-25T10:00:01.412Z,5.65
2019-05-25T10:02:32.789Z,6.72
2019-05-25T10:05:04.497Z,5.62
2019-05-25T10:07:35.793Z,6.25
2019-05-25T10:10:07.624Z,6.78
2019-05-25T10:12:39.030Z,5.03
2019-05-25T10:15:11.560Z,5.53
2019-05-25T10:17:42.984Z,5.12
2019-05-25T10:20:15.581Z,4.10
2019-05-25T10:22:46.957Z,4.50
2019-05-25T10:25:18.421Z,4.03
2019-05-25T10:27:49.881Z,4.62
2019-05-25T10:30:24.264Z,4.10
2019-05-25T10:32:55.858Z,3.75
2019-05-25T10:35:27.201Z,3.17
2019-05-25T10:37:58.542Z,3.80
2019-05-25T10:40:29.916Z,4.60
2019-05-25T10:43:01.278Z,4.78
2019-05-25T10:45:32.763Z,5.20
2019-05-25T10:48:04.135Z,5.80
2019-05-25T10:50:35.529Z,4.92
2019-05-25T10:53:06.921Z,4.15
2019-05-25T10:55:38.391Z,4.35
2019-05-25T10:58:09.731Z,4.58
2019-05-25T11:00:41.047Z,5.28
2019-05-25T11:03:12.429Z,7.25
2019-05-25T11:05:43.824Z,6.25
2019-05-25T11:08:15.174Z,5.70
2019-05-25T11:10:46.521Z,4.67
2019-05-25T11:13:17.921Z,6.42
2019-05-25T11:15:49.248Z,7.90
2019-05-25T11:18:20.569Z,5.53
2019-05-25T11:20:51.925Z,5.97
2019-05-25T11:23:23.273Z,6.60
2019-05-25T11:25:54.579Z,7.37
2019-05-25T11:28:25.900Z,5.30
2019-05-25T11:30:57.260Z,6.10
2019-05-25T11:33:28.580Z,6.05
2019-05-25T11:35:59.955Z,6.60
2019-05-25T11:38:32.385Z,6.78
2019-05-25T11:41:03.749Z,6.62
2019-05-25T11:43:35.212Z,5.87
2019-05-25T11:46:06.580Z,5.90
2019-05-25T11:48:37.932Z,5.53
2019-05-25T11:51:09.261Z,5.17
2019-05-25T11:53:40.626Z,5.10
2019-05-25T11:56:12.008Z,5.72
2019-05-25T11:58:47.306Z,5.17
2019-05-25T12:01:16.562Z,5.47
2019-05-25T12:03:47.975Z,4.87
2019-05-25T12:06:19.426Z,4.87
2019-05-25T12:08:50.798Z,4.55
2019-05-25T12:11:23.074Z,4.05
2019-05-25T12:13:54.482Z,4.17
2019-05-25T12:16:25.810Z,6.92
2019-05-25T12:18:57.193Z,4.30
2019-05-25T12:21:28.549Z,4.12
2019-05-25T12:23:59.913Z,4.70
2019-05-25T12:26:31.335Z,4.05
2019-05-25T12:29:02.725Z,3.83
2019-05-25T12:31:34.150Z,4.22
2019-05-25T12:34:05.563Z,4.30
2019-05-25T12:36:36.900Z,3.67
2019-05-25T12:39:08.914Z,4.35
2019-05-25T12:41:40.267Z,3.92
2019-05-25T12:44:11.628Z,3.35
2019-05-25T12:46:42.951Z,4.08
2019-05-25T12:49:14.353Z,3.52
2019-05-25T12:51:45.670Z,3.22
2019-05-25T12:54:17.063Z,3.55
2019-05-25T12:56:48.433Z,3.87
2019-05-25T12:59:19.794Z,3.50
2019-05-25T13:01:51.178Z,3.58
2019-05-25T13:04:22.552Z,3.30
2019-05-25T13:06:53.863Z,3.20
2019-05-25T13:09:25.433Z,2.80
2019-05-25T13:11:56.787Z,3.67
2019-05-25T13:14:28.179Z,3.08
2019-05-25T13:16:59.532Z,2.65
2019-05-25T13:19:30.908Z,3.20
2019-05-25T13:22:02.295Z,2.62
2019-05-25T13:24:33.682Z,2.80
2019-05-25T13:27:05.981Z,2.83
2019-05-25T13:29:37.363Z,2.98
2019-05-25T13:32:08.713Z,2.55
2019-05-25T13:34:41.358Z,2.65
2019-05-25T13:37:12.956Z,3.10
2019-05-25T13:39:47.484Z,2.95
2019-05-25T13:42:18.834Z,2.83
2019-05-25T13:44:50.188Z,2.65
2019-05-25T13:47:21.509Z,3.12
2019-05-25T13:49:52.920Z,2.50
2019-05-25T13:52:24.244Z,2.70
2019-05-25T13:54:55.598Z,2.37
2019-05-25T13:57:27.000Z,4.53
2019-05-25T13:59:58.375Z,4.40
2019-05-25T14:02:30.700Z,4.67
2019-05-25T14:05:02.066Z,4.55
2019-05-25T14:07:33.567Z,4.30
2019-05-25T14:10:07.345Z,4.53
2019-05-25T14:12:38.776Z,4.12
2019-05-25T14:15:10.717Z,4.28
2019-05-25T14:17:42.130Z,4.75
2019-05-25T14:20:13.904Z,4.40
2019-05-25T14:22:45.386Z,4.15
2019-05-25T14:25:16.911Z,4.10
2019-05-25T14:27:48.249Z,4.58
2019-05-25T14:30:21.222Z,4.83
2019-05-25T14:32:52.593Z,4.50
2019-05-25T14:35:23.985Z,3.90
2019-05-25T14:37:56.912Z,4.30
2019-05-25T14:40:28.403Z,4.28
2019-05-25T14:42:59.784Z,3.90
2019-05-25T14:45:31.190Z,3.85
2019-05-25T14:48:02.591Z,3.45
2019-05-25T14:50:34.001Z,3.80
2019-05-25T14:53:05.421Z,5.17
2019-05-25T14:55:36.828Z,3.80
2019-05-25T14:58:08.380Z,3.52
2019-05-25T15:00:39.813Z,3.57
2019-05-25T15:03:11.123Z,3.73
2019-05-25T15:05:45.569Z,4.30
2019-05-25T15:08:17.052Z,4.50
2019-05-25T15:10:48.444Z,4.60
2019-05-25T15:13:19.783Z,5.45
2019-05-25T15:15:51.108Z,5.08
2019-05-25T15:18:22.418Z,6.47
2019-05-25T15:20:54.799Z,6.07
2019-05-25T15:23:26.148Z,21.83
2019-05-25T15:25:57.465Z,14.47
2019-05-25T15:28:29.629Z,18.23
2019-05-25T15:31:01.015Z,4.43
2019-05-25T15:33:32.321Z,4.73
2019-05-25T15:36:03.726Z,4.93
2019-05-25T15:38:35.090Z,4.90
